createdAt,value
2022-09-04T00:03:55.239Z,93575.11
2022-09-04T00:12:26.948Z,93522.58
2022-09-04T00:20:59.862Z,93423.54
2022-09-04T00:29:28.839Z,93410.46
2022-09-04T00:38:06.625Z,93433.52
2022-09-04T00:46:41.643Z,93389.63
2022-09-04T00:55:42.044Z,93384.48
2022-09-04T01:04:51.425Z,93385.84
2022-09-04T01:14:01.011Z,93377.86
2022-09-04T01:22:51.873Z,93396.81
2022-09-04T01:31:30.083Z,93435.65
2022-09-04T01:40:34.153Z,93475.98
2022-09-04T01:49:30.250Z,93441.31
2022-09-04T01:57:58.118Z,93422.61
2022-09-04T02:06:25.519Z,93410.09
2022-09-04T02:15:12.894Z,93392.06
2022-09-04T02:23:52.540Z,93369.40
2022-09-04T02:32:21.751Z,93306.71
2022-09-04T02:41:16.544Z,93248.36
2022-09-04T02:49:51.956Z,93236.35
2022-09-04T02:58:39.868Z,93233.83
2022-09-04T03:07:20.967Z,93254.20
2022-09-04T03:15:45.994Z,93226.54
2022-09-04T03:25:09.994Z,93217.51
2022-09-04T03:33:44.345Z,93176.28
2022-09-04T03:42:25.306Z,93144.74
2022-09-04T03:51:10.299Z,93138.92
2022-09-04T03:59:59.486Z,93131.83
2022-09-04T04:08:40.746Z,93150.31
2022-09-04T04:17:41.483Z,93202.86
2022-09-04T04:26:15.763Z,93269.13
2022-09-04T04:34:50.827Z,93237.17
2022-09-04T04:43:19.284Z,93283.52
2022-09-04T04:52:10.574Z,93393.34
2022-09-04T05:00:52.345Z,93485.51
2022-09-04T05:09:19.162Z,93572.76
2022-09-04T05:18:21.092Z,93690.88
2022-09-04T05:26:55.638Z,94299.33
2022-09-04T05:35:44.831Z,95264.15
2022-09-04T05:44:38.210Z,96152.77
2022-09-04T05:53:16.255Z,96873.27
2022-09-04T06:02:03.741Z,97418.56
2022-09-04T06:10:32.271Z,97823.48
2022-09-04T06:19:43.354Z,97988.62
2022-09-04T06:28:09.632Z,97763.70
2022-09-04T06:36:58.505Z,97536.14
2022-09-04T06:45:47.497Z,97463.85
2022-09-04T06:54:28.798Z,97527.40
2022-09-04T07:03:10.774Z,97624.86
2022-09-04T07:11:48.685Z,97692.67
2022-09-04T07:20:34.836Z,97705.88
2022-09-04T07:28:57.618Z,97698.54
2022-09-04T07:37:28.339Z,97558.36
2022-09-04T07:46:04.186Z,97528.21
2022-09-04T07:54:42.617Z,97639.89
2022-09-04T08:03:29.310Z,97705.09
2022-09-04T08:12:33.974Z,97767.04
2022-09-04T08:21:17.348Z,97869.33
2022-09-04T08:30:04.573Z,97999.56
2022-09-04T08:39:08.484Z,98133.52
2022-09-04T08:48:02.375Z,98162.91
2022-09-04T08:56:43.529Z,98261.84
2022-09-04T09:05:43.680Z,98391.84
2022-09-04T09:14:09.448Z,98392.24
2022-09-04T09:23:13.772Z,98362.79
2022-09-04T09:32:03.869Z,98297.92
2022-09-04T09:40:57.796Z,98381.79
2022-09-04T09:50:00.722Z,98501.02
2022-09-04T09:58:45.814Z,98326.48
2022-09-04T10:07:37.664Z,98263.54
2022-09-04T10:16:25.248Z,98326.23
2022-09-04T10:25:18.439Z,98432.15
2022-09-04T10:34:17.148Z,98396.32
2022-09-04T10:43:13.952Z,98360.69
2022-09-04T10:52:05.251Z,98460.10
2022-09-04T11:00:53.375Z,98355.70
2022-09-04T11:09:50.844Z,98184.36
2022-09-04T11:18:34.982Z,98122.59
2022-09-04T11:27:13.736Z,98317.62
2022-09-04T11:36:05.987Z,98471.95
2022-09-04T11:44:55.809Z,98594.80
2022-09-04T11:53:37.175Z,98497.14
2022-09-04T12:02:19.041Z,98308.40
2022-09-04T12:11:09.237Z,98187.84
2022-09-04T12:20:09.820Z,98093.98
2022-09-04T12:28:41.779Z,98013.79
2022-09-04T12:37:12.691Z,97953.84
2022-09-04T12:46:06.283Z,97933.29
2022-09-04T12:54:37.223Z,97928.81
2022-09-04T13:03:41.605Z,97941.03
2022-09-04T13:12:45.564Z,97908.50
2022-09-04T13:21:17.692Z,97880.30
2022-09-04T13:30:23.464Z,97865.38
2022-09-04T13:39:12.299Z,97845.11
2022-09-04T13:48:06.451Z,97839.58
2022-09-04T13:56:47.750Z,97938.10
2022-09-04T14:05:19.041Z,98147.92
2022-09-04T14:13:53.853Z,98315.63
2022-09-04T14:22:33.771Z,98420.20
2022-09-04T14:31:20.229Z,98455.92
2022-09-04T14:40:04.723Z,98470.45
2022-09-04T14:48:29.341Z,98469.78
2022-09-04T14:57:33.766Z,98476.10
2022-09-04T15:06:08.271Z,98469.25
2022-09-04T15:14:36.955Z,98478.08
2022-09-04T15:23:10.006Z,98440.09
2022-09-04T15:31:39.965Z,98415.30
2022-09-04T15:40:24.171Z,98386.96
2022-09-04T15:49:11.506Z,98329.46
2022-09-04T15:57:56.211Z,98222.21
2022-09-04T16:06:39.792Z,98105.47
2022-09-04T16:15:07.425Z,97971.23
2022-09-04T16:23:40.363Z,97856.27
2022-09-04T16:32:12.511Z,97708.58
2022-09-04T16:40:57.119Z,97546.23
2022-09-04T16:49:32.822Z,97388.27
2022-09-04T16:58:00.446Z,97231.06
2022-09-04T17:06:42.922Z,97078.59
2022-09-04T17:15:34.096Z,96929.44
2022-09-04T17:29:02.284Z,96776.12
2022-09-04T17:37:22.098Z,96631.94
2022-09-04T17:42:11.216Z,96516.02
2022-09-04T17:50:35.638Z,96397.14
2022-09-04T17:59:45.555Z,96183.21
2022-09-04T18:08:31.858Z,95992.19
2022-09-04T18:17:12.649Z,95877.13
2022-09-04T18:26:04.173Z,95773.26
2022-09-04T18:37:22.071Z,95616.25
2022-09-04T18:50:22.620Z,95493.67
2022-09-04T18:52:42.691Z,95418.36
2022-09-04T19:01:39.696Z,95336.88
2022-09-04T19:10:12.367Z,95229.05
2022-09-04T19:18:45.260Z,95168.59
2022-09-04T19:27:47.989Z,95110.98
2022-09-04T19:36:35.757Z,95009.45
2022-09-04T19:46:18.699Z,94916.98
2022-09-04T19:54:09.229Z,94858.92
2022-09-04T20:02:32.026Z,94817.95
2022-09-04T20:11:35.385Z,94818.64
2022-09-04T20:20:13.962Z,94820.81
2022-09-04T20:29:04.714Z,94786.41
2022-09-04T20:37:39.572Z,94738.13
2022-09-04T20:52:40.831Z,94670.35
2022-09-04T20:55:20.844Z,94578.38
2022-09-04T21:04:05.977Z,94552.90
2022-09-04T21:13:04.081Z,94553.50
2022-09-04T21:21:58.532Z,94543.52
2022-09-04T21:30:53.478Z,94566.54
2022-09-04T21:39:57.712Z,94598.56
2022-09-04T21:48:42.827Z,94602.73
2022-09-04T22:02:32.371Z,94634.84
2022-09-04T22:08:02.426Z,94669.23
2022-09-04T22:15:30.439Z,94692.67
2022-09-04T22:24:21.378Z,94722.07
2022-09-04T22:33:08.845Z,94728.78
2022-09-04T22:42:24.430Z,94710.54
2022-09-04T22:51:16.907Z,94697.90
2022-09-04T22:59:58.040Z,94724.89
2022-09-04T23:13:49.762Z,94750.61
2022-09-04T23:18:00.908Z,94754.58
2022-09-04T23:27:28.403Z,94767.23
2022-09-04T23:36:12.677Z,94809.36
2022-09-04T23:45:09.748Z,94801.33
2022-09-04T23:54:25.316Z,94790.14
